Accueil
METAR-TAF:

METAR-TAF

Aéroports :

Aéroport de Shoreham

Brighton, Angleterre

latitude: 50-50N, longitude: 000-17W, altitude: 2 m

Observation

Le bulletin a été fait il y a 11 heures et 43 minutes, à 19:50 UTC
Vent 4 kt de ouest
Température 8°C
Humidité 81%
Pression 1040 hPa
Visibilité 10 km ou plus
Nuages fragmentés à une hauteur de 4300 ft

METAR: EGKA 041950Z 27004KT 9999 BKN043 08/05 Q1040

Heure: 07:33 (07:33 UTC)

Prévision

Le bulletin a été fait il y a 14 heures et 34 minutes, à 16:59 UTC
Prévision valable du 04 à 18 UTC au 04 à 21 UTC
Vent 5 kt de ouest
Visibilité 10 km ou plus
Nuages épars à une hauteur de 3000 ft

TAF: EGKA 041659Z 0418/0421 28005KT 9999 SCT030

Observations et prévisions météorologiques de plus de 4000 aéroports (messages METAR et TAF).

Les stations disponibles sont représentées par des disques jaunes et rouges sur la carte.

Passer la souris dessus pour voir le nom de la station.

Cliquer dessus pour voir les observations et prévisions météorologiques.

Pour changer de carte: cliquez sur les boutons verts avec une croix noire pour zoomer, sur le bouton vert avec un tiret pour effectuer un zoom arrière, ou sur les flèches vertes pour les cartes adjacentes.


METAR-TAF: